createdAt,value
2018-07-23T00:01:23.527Z,18.12
2018-07-23T00:03:53.128Z,18.82
2018-07-23T00:06:22.865Z,18.87
2018-07-23T00:08:53.497Z,17.48
2018-07-23T00:11:55.799Z,17.75
2018-07-23T00:14:27.342Z,18.67
2018-07-23T00:16:58.663Z,18.42
2018-07-23T00:19:29.398Z,17.62
2018-07-23T00:22:01.310Z,17.35
2018-07-23T00:25:08.143Z,18.40
2018-07-23T00:27:39.161Z,17.73
2018-07-23T00:30:09.994Z,20.82
2018-07-23T00:32:39.680Z,18.87
2018-07-23T00:35:25.492Z,19.17
2018-07-23T00:38:00.387Z,20.08
2018-07-23T00:40:30.053Z,20.15
2018-07-23T00:43:00.260Z,19.80
2018-07-23T00:45:30.012Z,20.82
2018-07-23T00:48:00.273Z,19.67
2018-07-23T00:51:04.378Z,19.65
2018-07-23T00:53:36.741Z,20.92
2018-07-23T00:56:06.435Z,20.92
2018-07-23T00:58:36.127Z,25.60
2018-07-23T01:01:05.681Z,18.55
2018-07-23T01:03:48.265Z,19.85
2018-07-23T01:06:22.236Z,20.97
2018-07-23T01:08:51.937Z,19.02
2018-07-23T01:11:21.963Z,19.77
2018-07-23T01:13:51.598Z,21.90
2018-07-23T01:16:25.131Z,19.85
2018-07-23T01:19:02.017Z,20.52
2018-07-23T01:21:35.021Z,19.45
2018-07-23T01:24:04.840Z,19.90
2018-07-23T01:26:34.443Z,18.98
2018-07-23T01:29:04.161Z,20.75
2018-07-23T01:31:33.849Z,20.90
2018-07-23T01:34:03.651Z,20.12
2018-07-23T01:36:34.471Z,19.32
2018-07-23T01:39:05.720Z,21.40
2018-07-23T01:41:36.501Z,20.02
2018-07-23T01:44:06.335Z,19.67
2018-07-23T01:46:36.021Z,19.00
2018-07-23T01:49:05.848Z,20.48
2018-07-23T01:51:35.685Z,22.07
2018-07-23T01:54:05.621Z,19.67
2018-07-23T01:56:37.170Z,20.97
2018-07-23T01:59:07.617Z,22.17
2018-07-23T02:01:37.349Z,22.35
2018-07-23T02:04:07.087Z,22.42
2018-07-23T02:06:36.678Z,21.87
2018-07-23T02:09:10.461Z,21.65
2018-07-23T02:11:39.929Z,21.20
2018-07-23T02:14:10.347Z,20.05
2018-07-23T02:16:40.572Z,21.23
2018-07-23T02:19:10.666Z,20.50
2018-07-23T02:21:40.701Z,21.05
2018-07-23T02:24:11.404Z,22.32
2018-07-23T02:26:41.063Z,20.50
2018-07-23T02:29:10.905Z,20.68
2018-07-23T02:31:40.522Z,21.12
2018-07-23T02:34:10.249Z,20.15
2018-07-23T02:36:40.312Z,19.70
2018-07-23T02:39:12.176Z,20.17
2018-07-23T02:41:42.848Z,20.23
2018-07-23T02:44:12.707Z,22.15
2018-07-23T02:46:42.302Z,22.15
2018-07-23T02:49:12.106Z,21.52
2018-07-23T02:51:42.047Z,20.70
2018-07-23T02:54:11.746Z,20.35
2018-07-23T02:56:42.342Z,21.60
2018-07-23T02:59:12.766Z,21.17
2018-07-23T03:01:43.128Z,22.37
2018-07-23T03:04:12.869Z,23.05
2018-07-23T03:06:42.525Z,22.93
2018-07-23T03:09:12.136Z,20.12
2018-07-23T03:11:41.842Z,25.05
2018-07-23T03:14:12.297Z,22.62
2018-07-23T03:16:43.383Z,21.23
2018-07-23T03:19:14.385Z,21.10
2018-07-23T03:21:45.078Z,19.62
2018-07-23T03:24:16.156Z,19.82
2018-07-23T03:26:50.762Z,21.65
2018-07-23T03:29:23.594Z,24.47
2018-07-23T03:31:57.020Z,19.75
2018-07-23T03:34:27.453Z,21.80
2018-07-23T03:36:58.608Z,20.55
2018-07-23T03:39:29.179Z,22.02
2018-07-23T03:41:59.508Z,18.90
2018-07-23T03:44:29.276Z,19.07
2018-07-23T03:46:59.088Z,20.15
2018-07-23T03:49:28.930Z,20.60
2018-07-23T03:51:58.635Z,21.57
2018-07-23T03:54:28.867Z,23.77
2018-07-23T03:56:59.231Z,22.20
2018-07-23T03:59:29.234Z,23.62
2018-07-23T04:01:59.763Z,21.45
2018-07-23T04:04:29.992Z,20.08
2018-07-23T04:06:59.975Z,22.13
2018-07-23T04:09:30.428Z,21.07
2018-07-23T04:12:01.744Z,21.33
2018-07-23T04:14:31.722Z,22.52
2018-07-23T04:17:01.386Z,23.22
2018-07-23T04:19:32.077Z,25.10
2018-07-23T04:22:02.104Z,22.15
2018-07-23T04:24:31.874Z,21.23
2018-07-23T04:27:01.543Z,20.92
2018-07-23T04:29:31.322Z,23.65
2018-07-23T04:32:01.002Z,24.60
2018-07-23T04:34:30.822Z,20.75
2018-07-23T04:37:00.551Z,22.00
2018-07-23T04:39:30.430Z,23.75
2018-07-23T04:42:00.110Z,22.20
2018-07-23T04:44:29.889Z,22.35
2018-07-23T04:46:59.629Z,23.75
2018-07-23T04:49:29.558Z,21.50
2018-07-23T04:51:59.251Z,22.45
2018-07-23T04:54:29.233Z,22.17
2018-07-23T04:56:59.038Z,23.90
2018-07-23T04:59:28.769Z,20.23
2018-07-23T05:01:58.529Z,21.70
2018-07-23T05:04:28.329Z,22.45
2018-07-23T05:06:58.350Z,22.75
2018-07-23T05:09:28.180Z,20.02
2018-07-23T05:11:57.889Z,20.80
2018-07-23T05:14:27.637Z,18.48
2018-07-23T05:16:57.390Z,16.48
2018-07-23T05:19:27.150Z,16.07
2018-07-23T05:21:56.850Z,17.62
2018-07-23T05:24:27.665Z,17.82
2018-07-23T05:26:57.410Z,18.15
2018-07-23T05:29:27.210Z,16.65
2018-07-23T05:31:57.031Z,19.12
2018-07-23T05:34:27.098Z,16.37
2018-07-23T05:36:56.770Z,19.02
2018-07-23T05:39:26.518Z,17.45
2018-07-23T05:41:56.352Z,17.12
2018-07-23T05:44:26.432Z,18.77
2018-07-23T05:46:56.251Z,18.02
2018-07-23T05:49:26.050Z,15.93
2018-07-23T05:51:56.015Z,18.55
2018-07-23T05:54:25.911Z,16.85
2018-07-23T05:56:55.677Z,20.80
2018-07-23T05:59:25.513Z,16.30
2018-07-23T06:01:55.335Z,16.23
2018-07-23T06:04:25.191Z,17.05
2018-07-23T06:06:55.015Z,16.45
2018-07-23T06:09:24.778Z,17.57
2018-07-23T06:11:54.603Z,16.27
2018-07-23T06:14:24.776Z,16.73
2018-07-23T06:16:54.519Z,16.30
2018-07-23T06:19:24.444Z,16.10
2018-07-23T06:21:54.118Z,14.83
2018-07-23T06:24:23.865Z,17.12
2018-07-23T06:26:53.623Z,18.35
2018-07-23T06:29:24.097Z,18.35
2018-07-23T06:31:53.918Z,15.63
2018-07-23T06:34:24.464Z,13.72
2018-07-23T06:36:54.223Z,14.07
2018-07-23T06:39:24.177Z,13.53
2018-07-23T06:41:53.876Z,14.13
2018-07-23T06:44:23.823Z,15.00
2018-07-23T06:46:53.580Z,14.75
2018-07-23T06:49:23.463Z,15.70
2018-07-23T06:51:53.183Z,15.63
2018-07-23T06:54:23.062Z,14.07
2018-07-23T06:56:52.863Z,11.88
2018-07-23T06:59:22.719Z,18.23
2018-07-23T07:01:52.638Z,13.50
2018-07-23T07:04:22.537Z,13.72
2018-07-23T07:06:52.318Z,13.75
2018-07-23T07:09:22.106Z,13.25
2018-07-23T07:11:51.913Z,12.23
2018-07-23T07:14:22.489Z,11.40
2018-07-23T07:16:52.329Z,11.48
2018-07-23T07:19:22.144Z,10.80
2018-07-23T07:21:51.888Z,12.68
2018-07-23T07:24:22.011Z,13.48
2018-07-23T07:26:52.185Z,15.40
2018-07-23T07:29:22.710Z,16.07
2018-07-23T07:31:52.428Z,15.98
2018-07-23T07:34:22.310Z,13.15
2018-07-23T07:36:52.688Z,12.90
2018-07-23T07:39:22.407Z,14.35
2018-07-23T07:41:52.117Z,13.70
2018-07-23T07:44:22.248Z,13.58
2018-07-23T07:46:52.073Z,12.98
2018-07-23T07:49:21.808Z,15.90
2018-07-23T07:51:51.630Z,12.93
2018-07-23T07:54:21.578Z,12.70
2018-07-23T07:56:51.311Z,12.68
2018-07-23T07:59:22.069Z,11.12
2018-07-23T08:01:51.832Z,11.83
2018-07-23T08:04:21.726Z,10.63
2018-07-23T08:06:51.450Z,11.20
2018-07-23T08:09:21.419Z,12.10
2018-07-23T08:11:51.211Z,12.68
2018-07-23T08:14:21.231Z,12.55
2018-07-23T08:16:50.991Z,11.70
2018-07-23T08:19:20.792Z,13.05
2018-07-23T08:21:50.571Z,12.85
2018-07-23T08:24:20.791Z,17.75
2018-07-23T08:26:50.591Z,12.40
2018-07-23T08:29:20.755Z,10.63
2018-07-23T08:31:50.681Z,12.63
2018-07-23T08:34:20.691Z,10.65
2018-07-23T08:36:50.436Z,12.47
2018-07-23T08:39:20.452Z,10.93
2018-07-23T08:41:50.189Z,11.93
2018-07-23T08:44:20.058Z,13.85
2018-07-23T08:46:49.930Z,11.30
2018-07-23T08:49:19.829Z,13.95
2018-07-23T08:51:49.630Z,12.28
2018-07-23T08:54:19.856Z,15.00
2018-07-23T08:56:49.718Z,11.10
2018-07-23T08:59:19.570Z,10.75
2018-07-23T09:01:49.488Z,10.05
2018-07-23T09:04:19.385Z,10.25
2018-07-23T09:06:49.529Z,11.40
2018-07-23T09:09:19.510Z,14.33
2018-07-23T09:11:49.387Z,11.57
2018-07-23T09:14:19.265Z,10.72
2018-07-23T09:16:49.145Z,10.03
2018-07-23T09:19:19.146Z,13.20
2018-07-23T09:21:48.945Z,11.53
2018-07-23T09:24:19.965Z,10.80
2018-07-23T09:26:49.725Z,11.80
2018-07-23T09:29:20.265Z,11.35
2018-07-23T09:31:50.509Z,10.55
2018-07-23T09:34:21.327Z,10.72
2018-07-23T09:36:51.187Z,10.58
2018-07-23T09:39:21.066Z,11.93
2018-07-23T09:41:50.863Z,10.53
2018-07-23T09:44:21.688Z,9.28
2018-07-23T09:46:51.624Z,11.30
2018-07-23T09:49:21.444Z,11.12
2018-07-23T09:51:51.317Z,10.48
2018-07-23T09:54:21.225Z,10.08
2018-07-23T09:56:51.104Z,10.50
2018-07-23T09:59:21.426Z,11.08
2018-07-23T10:01:51.364Z,10.75
2018-07-23T10:04:21.164Z,10.90
2018-07-23T10:06:50.985Z,10.00
2018-07-23T10:09:20.745Z,10.90
2018-07-23T10:11:50.514Z,11.57
2018-07-23T10:14:20.375Z,11.85
2018-07-23T10:16:50.361Z,10.95
2018-07-23T10:19:20.101Z,10.88
2018-07-23T10:21:49.996Z,10.78
2018-07-23T10:24:19.753Z,10.55
2018-07-23T10:26:49.733Z,10.40
2018-07-23T10:29:19.516Z,13.03
2018-07-23T10:31:49.254Z,11.45
2018-07-23T10:34:19.474Z,11.53
2018-07-23T10:36:49.414Z,11.78
2018-07-23T10:39:19.793Z,13.45
2018-07-23T10:41:49.935Z,12.60
2018-07-23T10:44:19.656Z,12.07
2018-07-23T10:46:49.534Z,11.83
2018-07-23T10:49:19.342Z,12.25
2018-07-23T10:51:49.242Z,11.75
2018-07-23T10:54:19.155Z,12.93
2018-07-23T10:56:49.015Z,11.93
2018-07-23T10:59:18.823Z,12.05
2018-07-23T11:01:48.615Z,12.43
2018-07-23T11:04:18.399Z,13.40
2018-07-23T11:06:48.215Z,12.82
2018-07-23T11:09:17.895Z,12.73
2018-07-23T11:11:47.623Z,13.22
2018-07-23T11:14:17.355Z,13.32
2018-07-23T11:16:47.283Z,12.95
2018-07-23T11:19:17.071Z,12.20
2018-07-23T11:21:47.444Z,12.60
2018-07-23T11:24:17.304Z,12.33
2018-07-23T11:26:47.246Z,13.05
2018-07-23T11:29:17.016Z,12.73
2018-07-23T11:31:46.996Z,12.25
2018-07-23T11:34:16.804Z,12.18
2018-07-23T11:36:46.745Z,13.43
2018-07-23T11:39:16.544Z,12.65
2018-07-23T11:41:46.217Z,12.47
2018-07-23T11:44:16.118Z,13.00
2018-07-23T11:46:45.918Z,12.93
2018-07-23T11:49:15.585Z,13.65
2018-07-23T11:51:45.438Z,11.90
2018-07-23T11:54:15.158Z,13.38
2018-07-23T11:56:45.027Z,12.68
2018-07-23T11:59:14.719Z,13.98
2018-07-23T12:01:44.602Z,13.68
2018-07-23T12:04:14.800Z,14.18
2018-07-23T12:06:44.644Z,13.08
2018-07-23T12:09:14.384Z,13.25
2018-07-23T12:11:44.418Z,14.28
2018-07-23T12:14:14.189Z,12.53
2018-07-23T12:16:44.148Z,13.55
2018-07-23T12:19:14.049Z,12.78
2018-07-23T12:21:43.957Z,12.98
2018-07-23T12:24:13.890Z,10.82
2018-07-23T12:26:43.790Z,10.82
2018-07-23T12:29:13.631Z,12.07
2018-07-23T12:31:43.536Z,11.93
2018-07-23T12:34:13.370Z,11.88
2018-07-23T12:36:43.292Z,10.68
2018-07-23T12:39:14.350Z,11.43
2018-07-23T12:41:44.591Z,9.10
2018-07-23T12:44:14.590Z,8.95
2018-07-23T12:46:44.592Z,10.58
2018-07-23T12:49:14.389Z,9.78
2018-07-23T12:51:44.391Z,9.33
2018-07-23T12:54:14.310Z,10.63
2018-07-23T12:56:44.170Z,10.23
2018-07-23T12:59:14.041Z,9.43
2018-07-23T13:01:44.093Z,10.32
2018-07-23T13:04:14.170Z,13.22
2018-07-23T13:06:44.105Z,13.68
2018-07-23T13:09:14.806Z,9.30
2018-07-23T13:11:44.987Z,9.85
2018-07-23T13:14:14.703Z,10.85
2018-07-23T13:16:44.984Z,11.08
2018-07-23T13:19:15.129Z,10.93
2018-07-23T13:21:45.094Z,10.25
2018-07-23T13:24:14.842Z,10.35
2018-07-23T13:26:44.703Z,10.98
2018-07-23T13:29:14.563Z,11.28
2018-07-23T13:31:44.585Z,10.45
2018-07-23T13:34:15.070Z,10.23
2018-07-23T13:36:45.070Z,10.90
2018-07-23T13:39:15.492Z,10.08
2018-07-23T13:41:45.401Z,10.65
2018-07-23T13:44:15.141Z,10.43
2018-07-23T13:46:45.221Z,14.15
2018-07-23T13:49:14.947Z,10.82
2018-07-23T13:51:44.701Z,10.75
2018-07-23T13:54:14.415Z,12.37
2018-07-23T13:56:44.547Z,10.20
2018-07-23T13:59:14.382Z,11.35
2018-07-23T14:01:44.746Z,10.40
2018-07-23T14:04:14.581Z,13.20
2018-07-23T14:06:44.605Z,10.58
2018-07-23T14:09:14.382Z,11.18
2018-07-23T14:11:44.207Z,10.00
2018-07-23T14:14:13.881Z,10.70
2018-07-23T14:16:43.908Z,10.10
2018-07-23T14:19:13.618Z,11.25
2018-07-23T14:21:43.360Z,11.45
2018-07-23T14:24:13.246Z,10.35
2018-07-23T14:26:43.098Z,13.15
2018-07-23T14:29:12.767Z,11.30
2018-07-23T14:31:42.602Z,10.45
2018-07-23T14:34:12.389Z,9.35
2018-07-23T14:36:42.238Z,11.50
2018-07-23T14:39:14.699Z,11.57
2018-07-23T14:41:44.511Z,10.65
2018-07-23T14:44:14.627Z,10.58
2018-07-23T14:46:44.669Z,11.85
2018-07-23T14:49:14.379Z,13.75
2018-07-23T14:51:44.200Z,10.53
2018-07-23T14:54:13.961Z,10.32
2018-07-23T14:56:43.969Z,10.10
2018-07-23T14:59:13.739Z,11.38
2018-07-23T15:01:43.453Z,11.88
2018-07-23T15:04:13.280Z,14.45
2018-07-23T15:06:43.160Z,10.00
2018-07-23T15:09:13.199Z,9.48
2018-07-23T15:11:43.069Z,13.20
2018-07-23T15:14:12.781Z,9.80
2018-07-23T15:16:42.681Z,10.25
2018-07-23T15:19:12.446Z,9.43
2018-07-23T15:21:42.303Z,9.28
2018-07-23T15:24:12.179Z,10.65
2018-07-23T15:26:42.039Z,12.23
2018-07-23T15:29:11.845Z,10.58
2018-07-23T15:31:41.826Z,10.08
2018-07-23T15:34:11.456Z,8.93
2018-07-23T15:36:41.399Z,8.83
2018-07-23T15:39:11.956Z,8.35
2018-07-23T15:41:41.756Z,9.35
2018-07-23T15:44:11.740Z,9.15
2018-07-23T15:46:41.659Z,8.63
2018-07-23T15:49:11.337Z,9.15
2018-07-23T15:51:41.454Z,8.78
2018-07-23T15:54:11.325Z,8.43
2018-07-23T15:56:41.234Z,10.08
2018-07-23T15:59:11.100Z,8.68
2018-07-23T16:01:40.997Z,8.48
2018-07-23T16:04:17.396Z,8.28
2018-07-23T16:06:47.234Z,7.62
2018-07-23T16:09:17.051Z,8.20
2018-07-23T16:11:46.930Z,11.22
2018-07-23T16:14:16.772Z,7.80
2018-07-23T16:16:46.571Z,7.97
2018-07-23T16:19:17.289Z,9.08
2018-07-23T16:21:47.468Z,8.23
2018-07-23T16:24:17.448Z,7.85
2018-07-23T16:26:47.367Z,8.68
2018-07-23T16:29:17.249Z,9.90
2018-07-23T16:31:47.226Z,7.70
2018-07-23T16:34:16.958Z,7.72
2018-07-23T16:36:46.841Z,11.48
2018-07-23T16:39:16.637Z,7.30
2018-07-23T16:41:47.085Z,8.75
2018-07-23T16:44:16.817Z,8.23
2018-07-23T16:46:46.657Z,9.13
2018-07-23T16:49:16.899Z,7.97
2018-07-23T16:51:47.049Z,9.78
2018-07-23T16:54:16.828Z,7.67
2018-07-23T16:56:46.516Z,7.87
2018-07-23T16:59:16.360Z,8.73
2018-07-23T17:01:46.405Z,8.30
2018-07-23T17:04:16.177Z,9.18
2018-07-23T17:06:46.143Z,7.20
2018-07-23T17:09:16.056Z,8.23
2018-07-23T17:14:37.649Z,8.15
2018-07-23T17:17:07.399Z,7.40
2018-07-23T17:19:37.303Z,7.65
2018-07-23T17:22:07.218Z,8.63
2018-07-23T17:25:00.523Z,7.78
2018-07-23T17:28:23.787Z,8.05
2018-07-23T17:31:28.159Z,7.53
2018-07-23T17:43:35.779Z,12.15
2018-07-23T17:56:00.554Z,11.70
2018-07-23T17:59:23.694Z,9.03
2018-07-23T18:14:59.397Z,9.78
2018-07-23T18:27:23.115Z,9.70
2018-07-23T18:30:03.895Z,10.65
2018-07-23T18:46:37.104Z,13.78
2018-07-23T19:02:31.634Z,11.38
2018-07-23T19:05:03.035Z,11.65
2018-07-23T19:07:32.808Z,12.75
2018-07-23T19:10:02.784Z,11.55
2018-07-23T19:12:32.755Z,11.53
2018-07-23T19:15:23.083Z,11.60
2018-07-23T19:17:58.202Z,11.68
2018-07-23T19:20:28.367Z,11.63
2018-07-23T19:29:58.967Z,12.45
2018-07-23T19:39:03.959Z,14.78
2018-07-23T19:41:52.711Z,12.70
2018-07-23T19:48:00.020Z,16.00
2018-07-23T20:00:50.456Z,13.15
2018-07-23T20:03:45.554Z,13.22
2018-07-23T20:09:38.295Z,13.25
2018-07-23T20:12:18.025Z,17.00
2018-07-23T20:41:15.768Z,13.90
2018-07-23T20:43:49.994Z,17.40
2018-07-23T20:53:29.324Z,14.30
2018-07-23T20:56:55.333Z,14.23
2018-07-23T21:00:25.132Z,14.50
2018-07-23T21:02:57.997Z,17.50
2018-07-23T21:08:50.691Z,17.20
2018-07-23T21:14:54.732Z,13.43
2018-07-23T21:20:48.265Z,15.30
2018-07-23T21:30:13.151Z,15.45
2018-07-23T21:45:39.287Z,15.83
2018-07-23T21:48:54.142Z,14.53
2018-07-23T21:54:48.589Z,15.97
2018-07-23T22:04:15.123Z,17.13
2018-07-23T22:14:53.985Z,20.40
2018-07-23T22:20:48.425Z,18.37
2018-07-23T22:31:25.376Z,14.23
2018-07-23T22:34:57.242Z,14.70
2018-07-23T22:38:30.544Z,17.10
2018-07-23T22:45:38.319Z,15.70
2018-07-23T22:49:03.049Z,18.43
2018-07-23T22:54:59.185Z,17.60
2018-07-23T23:00:55.612Z,18.87
2018-07-23T23:04:15.783Z,17.03
2018-07-23T23:13:24.174Z,16.80
2018-07-23T23:15:53.938Z,18.27
2018-07-23T23:18:24.018Z,16.60
2018-07-23T23:20:53.802Z,19.27
2018-07-23T23:23:24.063Z,19.80
2018-07-23T23:25:54.057Z,18.37
2018-07-23T23:28:24.104Z,19.67
2018-07-23T23:30:53.878Z,19.30
2018-07-23T23:33:23.737Z,17.60
2018-07-23T23:35:53.749Z,17.77
2018-07-23T23:38:23.816Z,18.67
2018-07-23T23:40:53.647Z,20.97
2018-07-23T23:44:15.868Z,17.60
2018-07-23T23:47:51.097Z,18.20
2018-07-23T23:51:16.148Z,20.77
2018-07-23T23:57:18.142Z,19.57
